Time;durP1;ratioP1;P1;durP2;ratioP2;P2;SDS_P1;SDS_P2;PMS_P1;PMS_P2;Temp;Humidity;BMP_temperature;BMP_pressure;BME280_temperature;BME280_humidity;BME280_pressure;Samples;Min_cycle;Max_cycle;Signal;HPM_P1;HPM_P2
2022/12/10 00:00:55;;;;;;;65.28;30.83;;;;;;;;;;5008315;28;20041;-43
2022/12/10 00:03:22;;;;;;;65.88;30.63;;;;;;;;;;5003047;28;20101;-45
2022/12/10 00:05:48;;;;;;;65.63;30.70;;;;;;;;;;5004844;28;20053;-46
2022/12/10 00:08:14;;;;;;;71.85;31.13;;;;;;;;;;5002936;28;20041;-43
2022/12/10 00:10:41;;;;;;;65.90;31.77;;;;;;;;;;5005960;28;20043;-42
2022/12/10 00:13:07;;;;;;;62.10;29.52;;;;;;;;;;4999119;28;20037;-46
2022/12/10 00:15:36;;;;;;;67.43;31.33;;;;;;;;;;5008152;28;20045;-44
2022/12/10 00:18:02;;;;;;;67.32;30.65;;;;;;;;;;5004103;28;20045;-43
2022/12/10 00:20:28;;;;;;;67.90;32.72;;;;;;;;;;5005660;28;20076;-46
2022/12/10 00:22:54;;;;;;;70.90;32.15;;;;;;;;;;5017814;28;20042;-47
2022/12/10 00:25:20;;;;;;;73.45;33.38;;;;;;;;;;5005582;28;20128;-43
2022/12/10 00:27:46;;;;;;;67.15;31.15;;;;;;;;;;5004436;28;20068;-42
2022/12/10 00:30:12;;;;;;;71.28;34.45;;;;;;;;;;5002079;28;20049;-45
2022/12/10 00:32:38;;;;;;;70.90;31.90;;;;;;;;;;5004057;28;20048;-48
2022/12/10 00:35:05;;;;;;;75.13;34.05;;;;;;;;;;5002398;28;20133;-44
2022/12/10 00:37:31;;;;;;;73.55;33.55;;;;;;;;;;5007072;28;20047;-47
2022/12/10 00:39:57;;;;;;;69.50;32.05;;;;;;;;;;5003856;28;20049;-42
2022/12/10 00:42:23;;;;;;;68.03;33.45;;;;;;;;;;5005085;28;20103;-45
2022/12/10 00:44:49;;;;;;;76.18;32.72;;;;;;;;;;5003049;28;20038;-44
2022/12/10 00:47:15;;;;;;;70.25;32.95;;;;;;;;;;5006173;28;20421;-46
2022/12/10 00:49:41;;;;;;;77.65;34.58;;;;;;;;;;5004329;28;20045;-42
2022/12/10 00:52:07;;;;;;;69.95;32.78;;;;;;;;;;5006873;28;20122;-45
2022/12/10 00:54:33;;;;;;;70.45;33.25;;;;;;;;;;5003324;28;20072;-44
2022/12/10 00:56:59;;;;;;;69.03;33.47;;;;;;;;;;5004370;28;20068;-43
2022/12/10 00:59:25;;;;;;;81.82;36.05;;;;;;;;;;5006025;28;20069;-44
2022/12/10 01:01:51;;;;;;;72.60;34.25;;;;;;;;;;5003788;28;20038;-43
2022/12/10 01:04:18;;;;;;;70.32;32.75;;;;;;;;;;5004780;28;20141;-42
2022/12/10 01:06:48;;;;;;;74.20;31.73;;;;;;;;;;5001644;28;20392;-44
2022/12/10 01:09:16;;;;;;;73.85;34.47;;;;;;;;;;5006716;28;20049;-45
2022/12/10 01:11:43;;;;;;;82.00;33.78;;;;;;;;;;5001282;28;20049;-45
2022/12/10 01:14:10;;;;;;;71.00;32.70;;;;;;;;;;5003043;28;20099;-43
2022/12/10 01:16:36;;;;;;;73.25;32.28;;;;;;;;;;5000569;28;20069;-45
2022/12/10 01:19:03;;;;;;;69.60;32.70;;;;;;;;;;4999044;28;20051;-44
2022/12/10 01:21:30;;;;;;;74.47;34.20;;;;;;;;;;5004261;28;20123;-45
2022/12/10 01:23:57;;;;;;;68.18;32.67;;;;;;;;;;5003204;28;20045;-46
2022/12/10 01:26:24;;;;;;;70.22;32.35;;;;;;;;;;5002473;28;20073;-45
2022/12/10 01:28:50;;;;;;;67.90;32.15;;;;;;;;;;5006856;28;20087;-44
2022/12/10 01:31:18;;;;;;;79.35;34.60;;;;;;;;;;5001812;28;20418;-41
2022/12/10 01:33:44;;;;;;;77.63;32.60;;;;;;;;;;5003621;28;20039;-47
2022/12/10 01:36:19;;;;;;;68.75;33.38;;;;;;;;;;5000208;28;20041;-42
2022/12/10 01:38:45;;;;;;;73.03;34.08;;;;;;;;;;5004476;28;21204;-44
2022/12/10 01:41:16;;;;;;;68.20;32.80;;;;;;;;;;5002881;28;20128;-45
2022/12/10 01:43:50;;;;;;;70.68;33.72;;;;;;;;;;4999489;28;20204;-44
2022/12/10 01:46:16;;;;;;;72.38;33.30;;;;;;;;;;5016245;28;20049;-43
2022/12/10 01:48:42;;;;;;;69.20;32.08;;;;;;;;;;5004074;28;24183;-47
2022/12/10 01:51:08;;;;;;;75.60;33.92;;;;;;;;;;5000722;28;20394;-47
2022/12/10 01:53:35;;;;;;;72.25;33.80;;;;;;;;;;5002433;28;20105;-43
2022/12/10 01:56:01;;;;;;;66.78;33.25;;;;;;;;;;5001641;28;20042;-47
2022/12/10 01:58:27;;;;;;;75.20;34.38;;;;;;;;;;5003486;28;20061;-45
2022/12/10 02:01:15;;;;;;;72.70;32.53;;;;;;;;;;5007068;28;20041;-45
2022/12/10 02:03:43;;;;;;;70.30;32.85;;;;;;;;;;5009096;28;20526;-43
2022/12/10 02:06:19;;;;;;;66.15;32.20;;;;;;;;;;5007931;28;20104;-46
2022/12/10 02:08:51;;;;;;;72.00;33.67;;;;;;;;;;5006950;28;20418;-45
2022/12/10 02:11:20;;;;;;;73.68;33.90;;;;;;;;;;5008218;28;20510;-46
2022/12/10 02:14:06;;;;;;;66.35;32.55;;;;;;;;;;5007010;28;20034;-45
2022/12/10 02:16:37;;;;;;;68.07;32.17;;;;;;;;;;4985603;28;20053;-46
2022/12/10 02:19:16;;;;;;;79.55;33.35;;;;;;;;;;5008954;28;20042;-42
2022/12/10 02:21:44;;;;;;;75.45;32.15;;;;;;;;;;5002108;28;20041;-45
2022/12/10 02:24:13;;;;;;;69.30;31.58;;;;;;;;;;5007326;28;20131;-44
2022/12/10 02:26:49;;;;;;;70.18;33.20;;;;;;;;;;5008750;28;20042;-47
2022/12/10 02:29:19;;;;;;;73.38;32.53;;;;;;;;;;5005615;28;20399;-47
2022/12/10 02:31:49;;;;;;;73.50;32.85;;;;;;;;;;5001404;28;20045;-41
2022/12/10 02:34:16;;;;;;;68.68;33.65;;;;;;;;;;5009984;28;20056;-48
2022/12/10 02:36:44;;;;;;;66.30;31.23;;;;;;;;;;5008006;28;20451;-42
2022/12/10 02:39:12;;;;;;;76.30;34.25;;;;;;;;;;5006630;28;20046;-42
2022/12/10 02:41:40;;;;;;;72.20;33.60;;;;;;;;;;5008010;28;20038;-42
2022/12/10 02:44:09;;;;;;;73.50;33.83;;;;;;;;;;5008323;28;20494;-42
2022/12/10 02:46:36;;;;;;;70.28;32.72;;;;;;;;;;5003125;28;20108;-45
2022/12/10 02:49:04;;;;;;;75.43;33.40;;;;;;;;;;5009187;28;20099;-43
2022/12/10 02:51:30;;;;;;;72.13;33.17;;;;;;;;;;5003898;28;20038;-43
2022/12/10 02:54:00;;;;;;;76.57;32.03;;;;;;;;;;5008984;28;20041;-43
2022/12/10 02:56:26;;;;;;;85.50;37.20;;;;;;;;;;5007709;28;20376;-41
2022/12/10 02:58:52;;;;;;;79.47;36.58;;;;;;;;;;5004862;28;20049;-45
2022/12/10 03:01:44;;;;;;;79.50;34.63;;;;;;;;;;5004752;28;20034;-43
2022/12/10 03:04:16;;;;;;;85.57;35.15;;;;;;;;;;5004275;28;20062;-43
2022/12/10 03:06:48;;;;;;;93.10;38.42;;;;;;;;;;5003634;28;20064;-42
2022/12/10 03:09:20;;;;;;;85.18;37.88;;;;;;;;;;5003814;28;20054;-41
2022/12/10 03:11:47;;;;;;;88.57;37.10;;;;;;;;;;5003662;28;20046;-42
2022/12/10 03:14:15;;;;;;;76.75;33.88;;;;;;;;;;5007030;28;20064;-43
2022/12/10 03:16:43;;;;;;;85.82;37.47;;;;;;;;;;5004885;28;20096;-41
2022/12/10 03:19:15;;;;;;;93.40;39.25;;;;;;;;;;5011794;28;20091;-43
2022/12/10 03:21:42;;;;;;;94.95;40.22;;;;;;;;;;5000326;28;20061;-42
2022/12/10 03:24:09;;;;;;;80.60;35.45;;;;;;;;;;5003679;28;20497;-46
2022/12/10 03:26:36;;;;;;;85.70;38.67;;;;;;;;;;5004565;28;20069;-41
2022/12/10 03:29:05;;;;;;;84.47;35.78;;;;;;;;;;5006637;28;20299;-46
2022/12/10 03:31:32;;;;;;;77.80;36.92;;;;;;;;;;5007061;28;21017;-42
2022/12/10 03:33:59;;;;;;;77.63;35.63;;;;;;;;;;5004857;28;20537;-42
2022/12/10 03:36:25;;;;;;;85.43;36.75;;;;;;;;;;5009347;28;20140;-45
2022/12/10 03:38:52;;;;;;;87.45;37.45;;;;;;;;;;5007475;28;20403;-44
2022/12/10 03:41:18;;;;;;;88.38;37.55;;;;;;;;;;5002638;28;20383;-43
2022/12/10 03:43:51;;;;;;;91.63;38.47;;;;;;;;;;5004166;28;20533;-42
2022/12/10 03:46:17;;;;;;;85.05;38.88;;;;;;;;;;5005647;28;20045;-46
2022/12/10 03:48:43;;;;;;;86.40;37.17;;;;;;;;;;5006359;28;20625;-48
2022/12/10 03:51:09;;;;;;;86.63;37.30;;;;;;;;;;5005846;28;20125;-43
2022/12/10 03:53:35;;;;;;;91.18;40.10;;;;;;;;;;5005928;28;20102;-43
2022/12/10 03:56:02;;;;;;;91.07;40.45;;;;;;;;;;5004269;28;20581;-43
2022/12/10 03:58:28;;;;;;;94.30;37.17;;;;;;;;;;5010034;28;20048;-46
2022/12/10 04:00:54;;;;;;;88.35;38.80;;;;;;;;;;5002483;28;20121;-42
2022/12/10 04:03:20;;;;;;;102.35;39.88;;;;;;;;;;5002180;28;20077;-43
2022/12/10 04:05:46;;;;;;;108.07;39.80;;;;;;;;;;5010851;28;20164;-44
2022/12/10 04:08:12;;;;;;;92.68;36.85;;;;;;;;;;4999678;28;20077;-43
2022/12/10 04:10:38;;;;;;;111.10;42.03;;;;;;;;;;5006892;28;20043;-44
2022/12/10 04:18:35;;;;;;;112.15;41.30;;;;;;;;;;5002558;28;20073;-45
2022/12/10 04:29:15;;;;;;;119.75;42.80;;;;;;;;;;5006405;28;20080;-42
2022/12/10 04:31:41;;;;;;;121.80;41.40;;;;;;;;;;5003484;28;20050;-42
2022/12/10 04:34:08;;;;;;;126.30;42.35;;;;;;;;;;4999708;28;20045;-43
2022/12/10 04:36:34;;;;;;;132.90;43.03;;;;;;;;;;5002510;28;20457;-42
2022/12/10 04:39:00;;;;;;;142.82;42.83;;;;;;;;;;5005102;28;20514;-44
2022/12/10 04:41:26;;;;;;;168.88;45.10;;;;;;;;;;5006808;28;20132;-42
2022/12/10 04:43:52;;;;;;;129.40;41.95;;;;;;;;;;5007229;28;20050;-43
2022/12/10 04:46:19;;;;;;;177.38;44.42;;;;;;;;;;5001635;28;20046;-44
2022/12/10 04:48:45;;;;;;;174.05;44.53;;;;;;;;;;5004281;28;20045;-44
2022/12/10 04:51:11;;;;;;;167.13;45.15;;;;;;;;;;5006556;28;20095;-45
2022/12/10 04:53:37;;;;;;;146.98;40.65;;;;;;;;;;5006908;28;20073;-42
2022/12/10 04:56:04;;;;;;;195.82;45.42;;;;;;;;;;5008232;28;20037;-47
2022/12/10 04:58:31;;;;;;;173.07;42.28;;;;;;;;;;5010445;28;20037;-48
2022/12/10 05:01:04;;;;;;;207.02;42.00;;;;;;;;;;5004821;28;20041;-44
2022/12/10 05:03:30;;;;;;;238.15;45.55;;;;;;;;;;5006518;28;20049;-45
2022/12/10 05:05:56;;;;;;;228.20;43.95;;;;;;;;;;5005572;28;20045;-42
2022/12/10 05:08:22;;;;;;;253.23;45.65;;;;;;;;;;5002829;28;20049;-43
2022/12/10 05:10:48;;;;;;;190.48;43.20;;;;;;;;;;5003883;28;21168;-42
2022/12/10 05:13:14;;;;;;;213.80;44.40;;;;;;;;;;5003829;28;20068;-45
2022/12/10 05:15:40;;;;;;;177.20;42.95;;;;;;;;;;5003635;28;20094;-43
2022/12/10 05:18:06;;;;;;;351.38;49.80;;;;;;;;;;5001001;28;20048;-46
2022/12/10 05:20:32;;;;;;;323.45;46.03;;;;;;;;;;5002307;28;20038;-44
2022/12/10 05:25:52;;;;;;;287.88;47.20;;;;;;;;;;5001282;28;20044;-44
2022/12/10 05:28:22;;;;;;;225.30;39.40;;;;;;;;;;5000479;28;20080;-42
2022/12/10 05:30:48;;;;;;;261.00;45.25;;;;;;;;;;5005650;28;20568;-42
2022/12/10 05:33:15;;;;;;;270.85;45.28;;;;;;;;;;4998707;28;20056;-42
2022/12/10 05:35:41;;;;;;;244.55;43.97;;;;;;;;;;5007061;28;20442;-45
2022/12/10 05:38:07;;;;;;;315.58;47.65;;;;;;;;;;5001434;28;20141;-42
2022/12/10 05:40:37;;;;;;;229.63;44.25;;;;;;;;;;5001561;28;20174;-42
2022/12/10 05:43:03;;;;;;;276.88;47.63;;;;;;;;;;5002575;28;20483;-43
2022/12/10 05:45:32;;;;;;;259.83;44.85;;;;;;;;;;5004142;28;20111;-46
2022/12/10 05:47:58;;;;;;;251.38;43.50;;;;;;;;;;5000434;28;20392;-44
2022/12/10 05:50:24;;;;;;;263.20;44.17;;;;;;;;;;5005034;28;20139;-43
2022/12/10 05:52:51;;;;;;;271.23;45.25;;;;;;;;;;5003566;28;20049;-42
2022/12/10 05:55:17;;;;;;;249.95;41.00;;;;;;;;;;5003783;28;20049;-43
2022/12/10 05:57:43;;;;;;;258.20;43.28;;;;;;;;;;5006586;28;20120;-43
2022/12/10 06:00:10;;;;;;;327.85;46.10;;;;;;;;;;5002736;28;20398;-43
2022/12/10 06:02:36;;;;;;;216.68;41.25;;;;;;;;;;4999738;28;20052;-42
2022/12/10 06:05:02;;;;;;;241.40;42.28;;;;;;;;;;5004832;28;20091;-44
2022/12/10 06:07:29;;;;;;;270.67;42.35;;;-1.50;99.90;;;;;;4999508;28;20046;-43
2022/12/10 06:09:55;;;;;;;233.75;42.20;;;;;;;;;;5006502;28;20076;-44
2022/12/10 06:12:21;;;;;;;288.60;45.95;;;;;;;;;;5002097;28;20073;-46
2022/12/10 06:14:48;;;;;;;280.30;43.40;;;;;;;;;;5004221;28;20671;-42
2022/12/10 06:17:14;;;;;;;259.35;43.15;;;;;;;;;;5004884;28;20116;-43
2022/12/10 06:19:40;;;;;;;221.20;41.28;;;;;;;;;;5008401;28;20304;-44
2022/12/10 06:22:06;;;;;;;195.48;39.38;;;;;;;;;;5006085;28;20063;-44
2022/12/10 06:24:32;;;;;;;233.85;41.95;;;;;;;;;;5001157;28;20061;-43
2022/12/10 06:26:58;;;;;;;219.98;39.30;;;;;;;;;;5004487;28;20041;-48
2022/12/10 06:29:24;;;;;;;237.63;41.38;;;;;;;;;;4998288;28;20352;-43
2022/12/10 06:31:50;;;;;;;239.93;40.40;;;;;;;;;;5003222;28;20044;-43
2022/12/10 06:34:16;;;;;;;194.93;37.38;;;;;;;;;;5002138;28;20042;-44
2022/12/10 06:36:42;;;;;;;238.88;39.35;;;;;;;;;;5000288;28;20045;-44
2022/12/10 06:39:09;;;;;;;198.82;38.72;;;;;;;;;;4999865;28;20041;-45
2022/12/10 06:41:35;;;;;;;183.27;36.65;;;;;;;;;;5004177;28;20033;-43
2022/12/10 06:44:01;;;;;;;207.70;34.70;;;;;;;;;;5003910;28;20052;-47
2022/12/10 06:46:28;;;;;;;190.50;36.60;;;;;;;;;;5004747;28;20048;-44
2022/12/10 06:48:54;;;;;;;195.40;37.08;;;;;;;;;;5005441;28;20063;-48
2022/12/10 06:51:20;;;;;;;188.98;39.22;;;;;;;;;;5004009;28;20049;-44
2022/12/10 06:53:46;;;;;;;171.38;34.05;;;;;;;;;;5007851;28;20434;-44
2022/12/10 06:56:17;;;;;;;166.93;34.95;;;;;;;;;;5005356;28;20542;-47
2022/12/10 06:58:43;;;;;;;150.38;33.15;;;;;;;;;;5008083;28;20046;-45
2022/12/10 07:01:19;;;;;;;238.70;41.03;;;;;;;;;;5002605;28;20046;-44
2022/12/10 07:03:47;;;;;;;284.90;43.50;;;;;;;;;;5003419;28;20324;-46
2022/12/10 07:06:14;;;;;;;253.40;43.05;;;;;;;;;;5005574;28;20107;-44
2022/12/10 07:08:40;;;;;;;240.80;41.38;;;;;;;;;;5004373;28;20057;-43
2022/12/10 07:11:10;;;;;;;278.65;42.47;;;;;;;;;;4996205;28;20046;-42
2022/12/10 07:13:37;;;;;;;296.58;43.50;;;;;;;;;;5002183;28;20592;-44
2022/12/10 07:16:03;;;;;;;267.50;41.60;;;;;;;;;;5006686;28;20045;-46
2022/12/10 07:18:29;;;;;;;279.23;42.67;;;;;;;;;;5007420;28;20045;-44
2022/12/10 07:20:55;;;;;;;197.90;37.13;;;;;;;;;;5008385;28;20042;-42
2022/12/10 07:23:22;;;;;;;253.30;41.15;;;;;;;;;;5005690;28;20048;-47
2022/12/10 07:25:48;;;;;;;289.42;41.03;;;;;;;;;;5001935;28;20069;-45
2022/12/10 07:28:14;;;;;;;210.90;38.13;;;;;;;;;;5006648;28;20845;-44
2022/12/10 07:30:40;;;;;;;252.95;39.33;;;;;;;;;;5006136;28;20041;-42
2022/12/10 07:33:06;;;;;;;247.75;38.63;;;;;;;;;;5008874;28;20034;-42
2022/12/10 07:35:32;;;;;;;193.48;35.13;;;;;;;;;;5002951;28;20042;-44
2022/12/10 07:37:58;;;;;;;174.43;35.05;;;;;;;;;;5005922;28;20089;-43
2022/12/10 07:40:24;;;;;;;255.95;35.88;;;;;;;;;;5009577;28;20046;-46
2022/12/10 07:42:50;;;;;;;199.10;33.78;;;;;;;;;;5008724;28;20505;-42
2022/12/10 07:45:16;;;;;;;224.10;35.15;;;;;;;;;;5005468;28;20060;-43
2022/12/10 07:47:42;;;;;;;231.75;38.08;;;;;;;;;;5005158;28;20578;-44
2022/12/10 07:50:08;;;;;;;226.50;36.30;;;;;;;;;;5002632;28;20065;-44
2022/12/10 07:52:35;;;;;;;203.60;35.30;;;;;;;;;;5002969;28;20247;-45
2022/12/10 07:55:01;;;;;;;238.20;39.08;;;;;;;;;;5006910;28;20524;-46
2022/12/10 07:57:29;;;;;;;187.20;35.88;;;;;;;;;;5002485;28;20041;-46
2022/12/10 07:59:55;;;;;;;163.70;33.25;;;;;;;;;;5006367;28;20580;-44
2022/12/10 08:02:21;;;;;;;139.48;28.65;;;;;;;;;;5001369;28;20041;-43
2022/12/10 08:04:47;;;;;;;166.35;32.20;;;;;;;;;;5005312;28;20047;-44
2022/12/10 08:07:13;;;;;;;232.25;32.13;;;;;;;;;;5003040;28;20494;-42
2022/12/10 08:09:39;;;;;;;180.43;29.52;;;;;;;;;;5006279;28;20049;-43
2022/12/10 08:12:05;;;;;;;207.57;30.65;;;;;;;;;;5005791;28;20403;-44
2022/12/10 08:14:31;;;;;;;153.63;28.65;;;;;;;;;;5003595;28;20429;-43
2022/12/10 08:16:57;;;;;;;188.70;30.65;;;;;;;;;;5002633;28;20199;-44
2022/12/10 08:19:23;;;;;;;163.18;28.33;;;;;;;;;;5003585;28;20138;-44
2022/12/10 08:21:50;;;;;;;170.32;28.05;;;;;;;;;;5003717;28;20045;-45
2022/12/10 08:24:16;;;;;;;125.57;28.55;;;;;;;;;;5005434;28;20072;-42
2022/12/10 08:26:42;;;;;;;177.43;31.30;;;;;;;;;;5007558;28;20056;-43
2022/12/10 08:29:08;;;;;;;171.63;31.02;;;;;;;;;;5009626;28;20890;-42
2022/12/10 08:31:34;;;;;;;184.65;31.40;;;;;;;;;;5003620;28;20077;-42
2022/12/10 08:34:00;;;;;;;171.63;33.85;;;;;;;;;;5004453;28;20542;-44
2022/12/10 08:36:26;;;;;;;269.42;37.70;;;;;;;;;;5005110;28;20034;-42
2022/12/10 08:38:52;;;;;;;193.85;32.95;;;;;;;;;;5004406;28;20602;-46
2022/12/10 08:41:22;;;;;;;189.43;29.92;;;;;;;;;;5003117;28;20865;-43
2022/12/10 08:43:51;;;;;;;173.63;31.77;;;;;;;;;;5006157;28;20157;-46
2022/12/10 08:46:17;;;;;;;172.20;30.02;;;;;;;;;;4996716;28;20049;-42
2022/12/10 08:48:43;;;;;;;141.80;29.88;;;;;;;;;;5002854;28;20133;-43
2022/12/10 08:51:11;;;;;;;179.25;33.15;;;;;;;;;;4997435;28;20833;-46
2022/12/10 08:53:37;;;;;;;141.02;27.23;;;;;;;;;;5001047;28;20042;-45
2022/12/10 08:56:03;;;;;;;117.32;26.13;;;-1.30;99.90;;;;;;5005453;28;20042;-44
2022/12/10 08:58:29;;;;;;;125.35;25.48;;;;;;;;;;5002479;28;20106;-42
2022/12/10 09:00:55;;;;;;;140.27;24.98;;;;;;;;;;5002452;28;20058;-44
2022/12/10 09:03:21;;;;;;;124.68;27.75;;;;;;;;;;5005806;28;20044;-42
2022/12/10 09:05:47;;;;;;;118.72;24.90;;;;;;;;;;5002942;28;20064;-42
2022/12/10 09:08:13;;;;;;;152.20;28.88;;;;;;;;;;5003873;28;20133;-42
2022/12/10 09:10:40;;;;;;;137.05;29.75;;;;;;;;;;5001700;28;20295;-45
2022/12/10 09:13:06;;;;;;;154.45;30.88;;;;;;;;;;5006262;28;20103;-42
2022/12/10 09:15:32;;;;;;;167.70;31.13;;;;;;;;;;4999594;28;20457;-44
2022/12/10 09:17:58;;;;;;;177.60;33.22;;;;;;;;;;5002436;28;20069;-42
2022/12/10 09:20:25;;;;;;;174.55;31.60;;;;;;;;;;5002260;28;20808;-48
2022/12/10 09:22:51;;;;;;;183.30;32.08;;;;;;;;;;5007413;28;20328;-43
2022/12/10 09:25:19;;;;;;;116.35;28.67;;;;;;;;;;5003430;28;20258;-42
2022/12/10 09:27:45;;;;;;;173.05;32.95;;;;;;;;;;5000506;28;20362;-43
2022/12/10 09:30:11;;;;;;;176.93;32.00;;;;;;;;;;5001721;28;20053;-43
2022/12/10 09:32:37;;;;;;;169.05;33.05;;;;;;;;;;5004634;28;20030;-46
2022/12/10 09:35:04;;;;;;;170.77;31.63;;;;;;;;;;5007852;28;20169;-46
2022/12/10 09:37:30;;;;;;;152.63;30.63;;;;;;;;;;5002308;28;20087;-44
2022/12/10 09:39:56;;;;;;;178.82;33.97;;;;;;;;;;5003444;28;20046;-44
2022/12/10 09:42:25;;;;;;;149.82;29.85;;;;;;;;;;5005703;28;20405;-46
2022/12/10 09:45:10;;;;;;;160.98;30.77;;;;;;;;;;5003029;28;20461;-43
2022/12/10 09:47:40;;;;;;;143.05;30.58;;;;;;;;;;5004517;28;20041;-45
2022/12/10 09:50:30;;;;;;;123.78;27.83;;;-1.00;99.90;;;;;;5003751;28;20132;-43
2022/12/10 09:52:58;;;;;;;131.70;28.70;;;;;;;;;;5001376;28;20038;-45
2022/12/10 09:55:32;;;;;;;154.77;28.77;;;;;;;;;;5003387;28;20042;-47
2022/12/10 09:57:58;;;;;;;158.63;29.10;;;;;;;;;;5004436;28;20529;-43
2022/12/10 10:00:38;;;;;;;136.38;28.42;;;;;;;;;;4999587;28;20041;-45
2022/12/10 10:03:06;;;;;;;135.43;27.80;;;;;;;;;;5001539;28;20041;-45
2022/12/10 10:05:35;;;;;;;136.35;26.83;;;;;;;;;;5004606;28;20400;-46
2022/12/10 10:08:02;;;;;;;139.35;27.35;;;;;;;;;;5006479;28;20045;-44
2022/12/10 10:10:35;;;;;;;117.18;26.98;;;;;;;;;;5001467;28;20073;-45
2022/12/10 10:13:31;;;;;;;122.78;28.92;;;-0.90;99.90;;;;;;5017974;28;20081;-42
2022/12/10 10:15:59;;;;;;;110.78;26.83;;;;;;;;;;5000493;28;20148;-44
2022/12/10 10:18:25;;;;;;;98.18;24.38;;;;;;;;;;5000177;28;20052;-42
2022/12/10 10:20:51;;;;;;;94.60;25.50;;;;;;;;;;5000862;28;20060;-42
2022/12/10 10:23:17;;;;;;;114.20;26.20;;;;;;;;;;5006893;28;20048;-42
2022/12/10 10:25:44;;;;;;;84.13;23.40;;;;;;;;;;5008151;28;20037;-45
2022/12/10 10:28:15;;;;;;;121.25;27.35;;;;;;;;;;5005535;28;20103;-43
2022/12/10 10:30:44;;;;;;;107.00;25.15;;;;;;;;;;5006838;28;20091;-45
2022/12/10 10:33:10;;;;;;;122.10;27.35;;;;;;;;;;5008391;28;20041;-42
2022/12/10 10:35:45;;;;;;;87.72;25.13;;;;;;;;;;5007702;28;20182;-42
2022/12/10 10:38:18;;;;;;;107.40;26.00;;;;;;;;;;5006933;28;20076;-42
2022/12/10 10:40:45;;;;;;;123.78;28.20;;;;;;;;;;5006516;28;20422;-45
2022/12/10 10:43:18;;;;;;;149.50;31.35;;;;;;;;;;5006208;28;20041;-43
2022/12/10 10:45:44;;;;;;;;;;;;;;;;;;5007111;28;20586;-44
2022/12/10 10:48:14;;;;;;;148.88;31.67;;;;;;;;;;5005903;28;20449;-43
2022/12/10 10:51:08;;;;;;;131.27;29.60;;;-0.60;99.90;;;;;;5010647;28;20140;-43
2022/12/10 10:53:44;;;;;;;132.90;28.75;;;;;;;;;;5000358;28;20045;-43
2022/12/10 10:56:11;;;;;;;189.25;33.55;;;;;;;;;;5002697;28;20042;-44
2022/12/10 10:58:46;;;;;;;163.27;31.83;;;;;;;;;;5007422;28;20406;-42
2022/12/10 11:01:12;;;;;;;198.45;35.75;;;;;;;;;;5003159;28;20042;-44
2022/12/10 11:03:46;;;;;;;188.93;34.55;;;;;;;;;;5005878;28;20077;-43
2022/12/10 11:06:13;;;;;;;199.88;36.45;;;;;;;;;;5004397;28;20471;-44
2022/12/10 11:08:39;;;;;;;193.38;35.15;;;;;;;;;;5004360;28;20049;-45
2022/12/10 11:11:07;;;;;;;158.80;34.40;;;;;;;;;;5006035;28;20701;-44
2022/12/10 11:13:35;;;;;;;186.57;35.55;;;;;;;;;;5001793;28;20034;-44
2022/12/10 11:16:21;;;;;;;147.18;34.15;;;;;;;;;;5005089;28;20286;-44
2022/12/10 11:19:01;;;;;;;148.18;32.92;;;;;;;;;;5004326;28;20048;-44
2022/12/10 11:21:28;;;;;;;114.32;30.77;;;;;;;;;;5004722;28;20100;-45
2022/12/10 11:23:55;;;;;;;141.25;34.03;;;;;;;;;;5010544;28;20140;-46
2022/12/10 11:26:21;;;;;;;192.88;37.67;;;;;;;;;;5006968;28;20038;-43
2022/12/10 11:29:02;;;;;;;148.05;31.67;;;;;;;;;;5005667;28;20463;-43
2022/12/10 11:31:46;;;;;;;135.30;31.30;;;;;;;;;;5006415;28;20947;-43
2022/12/10 11:34:22;;;;;;;94.47;27.17;;;;;;;;;;5008426;28;20069;-43
2022/12/10 11:37:29;;;;;;;94.63;28.65;;;-0.30;99.90;;;;;;5007825;28;20038;-46
2022/12/10 11:40:19;;;;;;;99.43;26.50;;;;;;;;;;5003256;28;20132;-44
2022/12/10 11:42:46;;;;;;;112.43;24.80;;;;;;;;;;5006309;28;20045;-45
2022/12/10 11:45:41;;;;;;;82.20;22.13;;;-0.40;99.90;;;;;;5008169;28;20045;-43
2022/12/10 11:48:07;;;;;;;92.18;24.92;;;;;;;;;;4964249;28;20456;-43
2022/12/10 11:50:33;;;;;;;103.53;25.90;;;;;;;;;;5003980;28;20266;-44
2022/12/10 11:53:05;;;;;;;101.47;27.33;;;;;;;;;;5009767;28;20092;-44
2022/12/10 11:55:37;;;;;;;130.60;29.15;;;;;;;;;;5006112;28;20133;-44
2022/12/10 11:58:30;;;;;;;153.05;29.38;;;;;;;;;;5008665;28;20179;-45
2022/12/10 12:01:02;;;;;;;143.82;28.33;;;;;;;;;;5001441;28;20053;-44
2022/12/10 12:03:52;;;;;;;110.22;28.30;;;-0.40;99.90;;;;;;5006599;28;20042;-46
2022/12/10 12:06:38;;;;;;;82.85;24.45;;;;;;;;;;5008537;28;20141;-45
2022/12/10 12:09:41;;;;;;;106.32;26.40;;;-0.30;99.90;;;;;;5004409;28;20077;-46
2022/12/10 12:12:13;;;;;;;88.93;24.38;;;;;;;;;;5007457;28;20585;-46
2022/12/10 12:14:49;;;;;;;92.03;25.52;;;;;;;;;;5002932;28;20046;-46
2022/12/10 12:17:21;;;;;;;73.07;22.92;;;;;;;;;;5004016;28;20046;-45
2022/12/10 12:19:47;;;;;;;;;;;;;;;;;;5003383;28;20042;-45
2022/12/10 12:22:22;;;;;;;113.55;26.20;;;;;;;;;;5005974;28;19944;-47
2022/12/10 12:24:49;;;;;;;131.90;28.30;;;;;;;;;;5002165;28;20034;-45
2022/12/10 12:27:28;;;;;;;106.82;25.75;;;;;;;;;;5005072;28;20111;-46
2022/12/10 12:30:12;;;;;;;139.10;27.70;;;;;;;;;;5002815;28;20128;-46
2022/12/10 12:32:57;;;;;;;101.60;26.05;;;;;;;;;;5004697;28;20034;-46
2022/12/10 12:35:26;;;;;;;132.07;27.67;;;;;;;;;;5006417;28;20122;-46
2022/12/10 12:37:59;;;;;;;122.75;26.88;;;;;;;;;;5003172;28;20056;-48
2022/12/10 12:40:30;;;;;;;118.03;27.45;;;;;;;;;;5006280;28;20463;-49
2022/12/10 12:43:01;;;;;;;107.63;25.75;;;;;;;;;;5004977;28;20701;-47
2022/12/10 12:45:33;;;;;;;88.30;24.83;;;;;;;;;;5001280;28;20084;-47
2022/12/10 12:48:19;;;;;;;;;;;-0.20;99.90;;;;;;5006967;28;20041;-47
2022/12/10 12:50:50;;;;;;;126.00;25.73;;;-0.20;99.90;;;;;;5002225;28;20454;-45
2022/12/10 12:53:19;;;;;;;108.38;25.17;;;-0.30;99.90;;;;;;5004936;28;20432;-44
2022/12/10 12:55:53;;;;;;;77.00;24.55;;;-0.10;99.90;;;;;;5003078;28;20049;-48
2022/12/10 12:58:32;;;;;;;81.22;23.75;;;;;;;;;;5005017;28;20773;-48
2022/12/10 13:01:03;;;;;;;107.35;24.70;;;;;;;;;;5002768;28;20038;-45
2022/12/10 13:03:35;;;;;;;111.70;26.75;;;;;;;;;;5004787;28;20041;-47
2022/12/10 13:06:13;;;;;;;115.13;26.58;;;-0.10;99.90;;;;;;5004506;28;20049;-46
2022/12/10 13:08:43;;;;;;;96.07;26.95;;;;;;;;;;5006781;28;20859;-48
2022/12/10 13:11:12;;;;;;;105.60;26.33;;;1.00;99.90;;;;;;5002627;28;20104;-45
2022/12/10 13:13:40;;;;;;;101.63;27.58;;;0.00;99.90;;;;;;5005930;28;20053;-44
2022/12/10 13:16:43;;;;;;;125.43;28.67;;;0.10;99.90;;;;;;5003956;28;20034;-44
2022/12/10 13:19:16;;;;;;;119.05;27.75;;;;;;;;;;5003248;28;20217;-44
2022/12/10 13:22:01;;;;;;;135.95;28.65;;;;;;;;;;5002060;28;20077;-44
2022/12/10 13:24:36;;;;;;;115.15;28.95;;;;;;;;;;5005694;28;20043;-44
2022/12/10 13:27:04;;;;;;;106.13;26.20;;;;;;;;;;5009120;28;20038;-44
2022/12/10 13:29:43;;;;;;;106.78;27.65;;;;;;;;;;5004922;28;20045;-47
2022/12/10 13:32:17;;;;;;;122.10;29.05;;;0.00;99.90;;;;;;5006444;28;20084;-43
2022/12/10 13:34:43;;;;;;;152.18;29.90;;;;;;;;;;5004514;28;20074;-48
2022/12/10 13:37:36;;;;;;;147.52;31.73;;;;;;;;;;5005002;28;20108;-45
2022/12/10 13:40:09;;;;;;;119.50;29.52;;;;;;;;;;5001672;28;20068;-45
2022/12/10 13:45:21;;;;;;;120.47;29.45;;;;;;;;;;5002316;28;20055;-48
2022/12/10 13:47:55;;;;;;;108.55;29.25;;;;;;;;;;5003123;28;20069;-45
2022/12/10 13:50:21;;;;;;;116.07;31.15;;;;;;;;;;5007555;28;20052;-43
2022/12/10 13:53:06;;;;;;;123.10;31.63;;;;;;;;;;5004459;28;20034;-43
2022/12/10 13:55:34;;;;;;;117.78;29.90;;;;;;;;;;5004135;28;20133;-44
2022/12/10 13:58:19;;;;;;;118.53;29.75;;;;;;;;;;5001148;28;20730;-43
2022/12/10 14:00:45;;;;;;;100.30;29.40;;;;;;;;;;5002752;28;20046;-45
2022/12/10 14:03:35;;;;;;;94.22;27.60;;;;;;;;;;5002482;28;20097;-43
2022/12/10 14:06:16;;;;;;;119.60;32.72;;;;;;;;;;5000897;28;20053;-45
2022/12/10 14:08:51;;;;;;;113.55;28.55;;;;;;;;;;5001444;28;20057;-43
2022/12/10 14:11:20;;;;;;;109.82;30.23;;;;;;;;;;5005291;28;20073;-46
2022/12/10 14:13:53;;;;;;;151.23;33.50;;;;;;;;;;5005635;28;20048;-43
2022/12/10 14:16:19;;;;;;;;;;;;;;;;;;5006772;28;20048;-43
2022/12/10 14:18:53;;;;;;;136.48;31.10;;;-0.10;99.90;;;;;;5001430;28;19925;-45
2022/12/10 14:21:19;;;;;;;130.10;30.40;;;;;;;;;;5005111;28;20076;-43
2022/12/10 14:23:46;;;;;;;116.70;30.58;;;;;;;;;;5006579;28;20044;-43
2022/12/10 14:26:18;;;;;;;138.82;31.58;;;0.00;99.90;;;;;;5001387;28;20408;-44
2022/12/10 14:28:46;;;;;;;137.87;30.83;;;;;;;;;;5009088;28;20586;-42
2022/12/10 14:31:21;;;;;;;165.60;31.90;;;;;;;;;;5003061;28;20815;-43
2022/12/10 14:33:49;;;;;;;130.15;32.33;;;-0.10;99.90;;;;;;5007244;28;20045;-43
2022/12/10 14:36:21;;;;;;;136.15;31.08;;;0.00;99.90;;;;;;5008986;28;20780;-44